Observations for NORWICH WEA CNTRE, United Kingdom (EGSH)

EGSH 130850Z 11009KT 9999 BKN034 05/01 Q1020 NOSIG  
EGSH 130820Z 11010KT 9999 BKN034 05/01 Q1020 NOSIG  
EGSH 130750Z 11011KT 9999 BKN034 05/00 Q1020 NOSIG  
EGSH 130720Z 11007KT 070V140 9999 SCT033 05/01 Q1019 NOSIG  
EGSH 130650Z 12010KT 9999 SCT033 04/M00 Q1019 NOSIG 
EGSH 130620Z 11009KT 9999 SCT033 04/M00 Q1019 NOSIG 
EGSH 130550Z 12010KT 090V160 9999 BKN033 05/00 Q1019 NOSIG  
EGSH 130520Z AUTO 12010KT 9999 SCT031/// BKN037/// 05/01 Q1019  
EGSH 130450Z AUTO 12009KT 9999 FEW031/// BKN037/// 05/01 Q1019  
EGSH 130420Z AUTO 11011KT 9999 BKN038/// 05/00 Q1019
EGSH 130350Z AUTO 11010KT 9999 FEW031/// BKN041/// 04/00 Q1019  
EGSH 130320Z AUTO 12008KT 9999 FEW034/// OVC040/// 05/01 Q1020  
EGSH 130250Z AUTO 12010KT 9999 BKN027/// OVC033/// 05/01 Q1020  
EGSH 130220Z AUTO 13009KT 9999 SCT033/// OVC038/// 05/01 Q1020  
EGSH 130150Z AUTO 12010KT 9999 FEW030/// BKN035/// OVC041/// 05/01 Q1020
EGSH 130120Z AUTO 13011KT 100V160 9999 OVC033/// 05/00 Q1020
EGSH 130050Z AUTO 12012KT 9999 BKN029/// OVC034/// 05/M00 Q1021 
EGSH 130020Z AUTO 12012KT 9999 OVC030/// 05/00 Q1021
EGSH 122350Z AUTO 12010KT 9999 BKN026/// OVC031/// 05/01 Q1021  
EGSH 122320Z AUTO 13013KT 9999 OVC030/// 05/01 Q1021
EGSH 122250Z AUTO 11013KT 9999 BKN032/// OVC037/// 06/01 Q1021  
EGSH 122220Z AUTO 12013KT 9999 BKN034/// OVC039/// 06/01 Q1021  
EGSH 122150Z 12011KT 9999 BKN036 06/02 Q1021 NOSIG  
EGSH 122120Z 12008KT 9999 BKN034 05/02 Q1022 NOSIG  
EGSH 122050Z 11006KT 9999 BKN027 06/03 Q1022 NOSIG  
EGSH 122020Z 11008KT 9999 BKN027 05/03 Q1022 NOSIG  
EGSH 121950Z 09005KT 9999 BKN038 05/03 Q1022 NOSIG  
EGSH 121920Z 10006KT 9999 BKN038 03/01 Q1022 NOSIG  
EGSH 121850Z 12005KT 9999 SCT042 03/01 Q1022 NOSIG  
EGSH 121820Z 11006KT 9999 SCT039 02/M00 Q1022 NOSIG 
EGSH 121750Z 11006KT 9999 SCT039 03/M00 Q1023 NOSIG 
EGSH 121720Z 11007KT 9999 FEW032 BKN041 05/01 Q1023 NOSIG   
EGSH 121650Z 11005KT 9999 FEW028 SCT038 05/02 Q1023 NOSIG   
EGSH 121620Z 11004KT 9999 FEW036 SCT045 05/01 Q1023 NOSIG   
EGSH 121550Z 10005KT 9999 FEW036 SCT045 05/01 Q1023 NOSIG   
EGSH 121520Z 15005KT 9999 BKN042 06/M00 Q1023 NOSIG 
EGSH 121450Z 16006KT 120V200 9999 BKN045 07/M00 Q1023 NOSIG 
EGSH 121420Z 16008KT 9999 BKN045 07/M00 Q1023 NOSIG 
EGSH 121350Z 16009KT 9999 SCT045 08/M00 Q1023 NOSIG 
EGSH 121320Z 15009KT 110V200 9999 SCT046 08/00 Q1024 NOSIG  
EGSH 121250Z 14009KT 110V190 9999 SCT046 08/01 Q1024 NOSIG  
EGSH 121220Z 16009KT 9999 SCT046 08/00 Q1024 NOSIG  
EGSH 121150Z 16008KT 120V190 CAVOK 07/01 Q1024 NOSIG
EGSH 121120Z 16007KT CAVOK 07/02 Q1024 NOSIG
EGSH 121050Z 14004KT 9999 FEW049 06/02 Q1025 NOSIG  
EGSH 121020Z 13004KT 9999 FEW049 06/03 Q1025 NOSIG  
EGSH 120950Z 15004KT 130V190 9999 SCT048 05/03 Q1024 NOSIG  
EGSH 120920Z 16004KT 9999 SCT033 03/01 Q1024 NOSIG  
EGSH 120850Z 15004KT 9999 SCT033 02/01 Q1025 NOSIG